sensor_id;sensor_type;location;lat;lon;timestamp;pressure;altitude;pressure_sealevel;temperature;humidity
6389;BME280;3227;42.654;23.360;2022-11-15T00:00:07;95015.97;;;6.81;87.01
6389;BME280;3227;42.654;23.360;2022-11-15T00:02:33;95016.69;;;6.77;86.36
6389;BME280;3227;42.654;23.360;2022-11-15T00:05:00;95002.16;;;6.71;87.24
6389;BME280;3227;42.654;23.360;2022-11-15T00:07:32;95018.44;;;6.78;87.64
6389;BME280;3227;42.654;23.360;2022-11-15T00:09:59;95017.59;;;6.79;88.13
6389;BME280;3227;42.654;23.360;2022-11-15T00:12:28;94993.56;;;6.66;88.56
6389;BME280;3227;42.654;23.360;2022-11-15T00:14:54;95010.00;;;6.80;88.05
6389;BME280;3227;42.654;23.360;2022-11-15T00:17:21;95018.38;;;6.75;86.75
6389;BME280;3227;42.654;23.360;2022-11-15T00:19:48;95009.72;;;6.67;86.16
6389;BME280;3227;42.654;23.360;2022-11-15T00:22:16;95003.63;;;6.62;85.74
6389;BME280;3227;42.654;23.360;2022-11-15T00:24:42;94998.38;;;6.54;84.78
6389;BME280;3227;42.654;23.360;2022-11-15T00:27:09;94936.31;;;6.11;84.62
6389;BME280;3227;42.654;23.360;2022-11-15T00:29:37;94998.28;;;6.51;85.89
6389;BME280;3227;42.654;23.360;2022-11-15T00:32:08;95003.38;;;6.51;85.06
6389;BME280;3227;42.654;23.360;2022-11-15T00:34:35;95005.88;;;6.48;84.72
6389;BME280;3227;42.654;23.360;2022-11-15T00:37:02;95000.84;;;6.51;86.04
6389;BME280;3227;42.654;23.360;2022-11-15T00:39:29;94992.41;;;6.54;86.13
6389;BME280;3227;42.654;23.360;2022-11-15T00:41:55;94993.22;;;6.51;87.02
6389;BME280;3227;42.654;23.360;2022-11-15T00:44:22;94933.09;;;6.19;87.90
6389;BME280;3227;42.654;23.360;2022-11-15T00:46:50;94996.53;;;6.47;87.68
6389;BME280;3227;42.654;23.360;2022-11-15T00:49:17;94996.47;;;6.45;87.60
6389;BME280;3227;42.654;23.360;2022-11-15T00:51:44;94960.47;;;6.29;87.72
6389;BME280;3227;42.654;23.360;2022-11-15T00:54:11;94986.25;;;6.44;88.83
6389;BME280;3227;42.654;23.360;2022-11-15T00:56:37;94963.06;;;6.30;87.93
6389;BME280;3227;42.654;23.360;2022-11-15T00:59:04;94992.03;;;6.37;87.41
6389;BME280;3227;42.654;23.360;2022-11-15T01:01:31;94984.44;;;6.38;88.19
6389;BME280;3227;42.654;23.360;2022-11-15T01:03:59;94985.34;;;6.40;89.46
6389;BME280;3227;42.654;23.360;2022-11-15T01:06:26;94987.06;;;6.41;89.00
6389;BME280;3227;42.654;23.360;2022-11-15T01:08:53;94986.22;;;6.42;89.51
6389;BME280;3227;42.654;23.360;2022-11-15T01:11:19;94979.44;;;6.43;89.52
6389;BME280;3227;42.654;23.360;2022-11-15T01:13:46;94983.69;;;6.42;89.33
6389;BME280;3227;42.654;23.360;2022-11-15T01:16:15;94931.19;;;6.08;89.41
6389;BME280;3227;42.654;23.360;2022-11-15T01:18:44;94961.22;;;6.25;89.58
6389;BME280;3227;42.654;23.360;2022-11-15T01:21:14;94970.59;;;6.26;88.62
6389;BME280;3227;42.654;23.360;2022-11-15T01:23:41;94972.50;;;6.36;88.60
6389;BME280;3227;42.654;23.360;2022-11-15T01:26:10;94971.47;;;6.28;89.36
6389;BME280;3227;42.654;23.360;2022-11-15T01:28:39;94974.00;;;6.28;89.23
6389;BME280;3227;42.654;23.360;2022-11-15T01:31:09;94969.81;;;6.30;89.31
6389;BME280;3227;42.654;23.360;2022-11-15T01:33:37;94970.69;;;6.30;89.71
6389;BME280;3227;42.654;23.360;2022-11-15T01:36:05;94978.41;;;6.35;89.14
6389;BME280;3227;42.654;23.360;2022-11-15T01:38:34;94946.44;;;6.08;88.48
6389;BME280;3227;42.654;23.360;2022-11-15T01:41:00;94946.53;;;6.13;88.92
6389;BME280;3227;42.654;23.360;2022-11-15T01:43:30;94968.06;;;6.27;88.87
6389;BME280;3227;42.654;23.360;2022-11-15T01:46:00;94980.09;;;6.33;88.75
6389;BME280;3227;42.654;23.360;2022-11-15T01:48:32;94958.53;;;6.19;87.07
6389;BME280;3227;42.654;23.360;2022-11-15T01:51:00;94968.78;;;6.22;87.00
6389;BME280;3227;42.654;23.360;2022-11-15T01:53:29;94910.22;;;5.84;88.03
6389;BME280;3227;42.654;23.360;2022-11-15T01:55:58;94971.28;;;6.20;88.52
6389;BME280;3227;42.654;23.360;2022-11-15T01:58:27;94956.75;;;6.15;87.87
6389;BME280;3227;42.654;23.360;2022-11-15T02:00:54;94942.91;;;6.03;87.36
6389;BME280;3227;42.654;23.360;2022-11-15T02:03:22;94966.94;;;6.15;87.78
6389;BME280;3227;42.654;23.360;2022-11-15T02:05:53;94960.13;;;6.14;88.64
6389;BME280;3227;42.654;23.360;2022-11-15T02:22:14;94961.56;;;6.40;84.16
6389;BME280;3227;42.654;23.360;2022-11-15T02:25:03;94964.78;;;6.31;84.25
6389;BME280;3227;42.654;23.360;2022-11-15T02:28:15;94961.06;;;6.19;83.56
6389;BME280;3227;42.654;23.360;2022-11-15T02:30:48;94963.41;;;6.09;83.81
6389;BME280;3227;42.654;23.360;2022-11-15T02:33:27;94943.50;;;5.92;83.80
6389;BME280;3227;42.654;23.360;2022-11-15T02:35:59;94950.97;;;5.87;82.66
6389;BME280;3227;42.654;23.360;2022-11-15T02:38:31;94960.47;;;5.93;83.17
6389;BME280;3227;42.654;23.360;2022-11-15T02:41:02;94952.72;;;5.88;84.05
6389;BME280;3227;42.654;23.360;2022-11-15T02:43:36;94951.78;;;5.85;85.53
6389;BME280;3227;42.654;23.360;2022-11-15T02:46:27;94951.78;;;5.86;86.28
6389;BME280;3227;42.654;23.360;2022-11-15T02:49:10;94958.66;;;5.89;86.24
6389;BME280;3227;42.654;23.360;2022-11-15T02:51:38;94962.16;;;5.94;86.71
6389;BME280;3227;42.654;23.360;2022-11-15T02:54:06;94955.50;;;5.97;87.37
6389;BME280;3227;42.654;23.360;2022-11-15T02:56:33;94951.13;;;5.93;86.49
6389;BME280;3227;42.654;23.360;2022-11-15T02:59:17;94955.50;;;5.97;85.22
6389;BME280;3227;42.654;23.360;2022-11-15T03:01:59;94963.06;;;5.96;84.50
6389;BME280;3227;42.654;23.360;2022-11-15T03:04:36;94937.28;;;5.82;84.83
6389;BME280;3227;42.654;23.360;2022-11-15T03:07:10;94952.84;;;5.94;84.76
6389;BME280;3227;42.654;23.360;2022-11-15T03:09:41;94951.13;;;5.93;86.42
6389;BME280;3227;42.654;23.360;2022-11-15T03:12:13;94961.41;;;5.96;86.78
6389;BME280;3227;42.654;23.360;2022-11-15T03:14:49;94958.81;;;5.95;86.89
6389;BME280;3227;42.654;23.360;2022-11-15T03:17:23;94963.03;;;5.94;87.00
6389;BME280;3227;42.654;23.360;2022-11-15T03:19:54;94939.06;;;5.86;85.27
6389;BME280;3227;42.654;23.360;2022-11-15T03:22:24;94961.44;;;5.98;84.24
6389;BME280;3227;42.654;23.360;2022-11-15T03:24:54;94921.09;;;5.79;85.39
6389;BME280;3227;42.654;23.360;2022-11-15T03:27:25;94954.78;;;6.03;85.80
6389;BME280;3227;42.654;23.360;2022-11-15T03:29:57;94955.72;;;6.06;85.57
6389;BME280;3227;42.654;23.360;2022-11-15T03:32:29;94934.31;;;5.98;85.53
6389;BME280;3227;42.654;23.360;2022-11-15T03:34:58;94937.13;;;6.10;84.06
6389;BME280;3227;42.654;23.360;2022-11-15T03:37:33;94951.66;;;6.15;84.34
6389;BME280;3227;42.654;23.360;2022-11-15T03:40:02;94944.13;;;6.19;83.89
6389;BME280;3227;42.654;23.360;2022-11-15T03:42:32;94936.47;;;6.18;83.61
6389;BME280;3227;42.654;23.360;2022-11-15T03:45:02;94914.03;;;6.01;83.85
6389;BME280;3227;42.654;23.360;2022-11-15T03:47:36;94933.84;;;6.15;83.84
6389;BME280;3227;42.654;23.360;2022-11-15T03:50:09;94928.81;;;6.16;84.06
6389;BME280;3227;42.654;23.360;2022-11-15T03:52:37;94879.75;;;5.87;83.82
6389;BME280;3227;42.654;23.360;2022-11-15T03:55:09;94892.59;;;5.90;83.63
6389;BME280;3227;42.654;23.360;2022-11-15T03:57:37;94925.22;;;6.08;83.73
6389;BME280;3227;42.654;23.360;2022-11-15T04:00:07;94927.72;;;6.06;83.72
6389;BME280;3227;42.654;23.360;2022-11-15T04:02:35;94922.44;;;5.97;84.33
6389;BME280;3227;42.654;23.360;2022-11-15T04:05:02;94917.16;;;5.90;85.13
6389;BME280;3227;42.654;23.360;2022-11-15T04:07:29;94917.25;;;5.93;85.95
6389;BME280;3227;42.654;23.360;2022-11-15T04:09:56;94921.13;;;5.80;85.87
6389;BME280;3227;42.654;23.360;2022-11-15T04:12:28;94916.72;;;5.73;86.10
6389;BME280;3227;42.654;23.360;2022-11-15T04:14:59;94900.28;;;5.60;86.37
6389;BME280;3227;42.654;23.360;2022-11-15T04:17:40;94920.31;;;5.81;86.23
6389;BME280;3227;42.654;23.360;2022-11-15T04:20:13;94911.22;;;5.89;86.34
6389;BME280;3227;42.654;23.360;2022-11-15T04:22:58;94914.03;;;6.01;86.56
6389;BME280;3227;42.654;23.360;2022-11-15T04:25:43;94863.34;;;5.73;85.33
6389;BME280;3227;42.654;23.360;2022-11-15T04:28:11;94854.75;;;5.68;84.81
6389;BME280;3227;42.654;23.360;2022-11-15T04:30:38;94867.50;;;5.71;85.83
6389;BME280;3227;42.654;23.360;2022-11-15T04:33:07;94913.88;;;5.95;85.90
6389;BME280;3227;42.654;23.360;2022-11-15T04:35:34;94908.66;;;5.89;86.85
6389;BME280;3227;42.654;23.360;2022-11-15T04:38:02;94915.53;;;5.92;86.84
6389;BME280;3227;42.654;23.360;2022-11-15T04:40:30;94919.84;;;5.96;87.53
6389;BME280;3227;42.654;23.360;2022-11-15T04:42:57;94923.41;;;6.04;87.52
6389;BME280;3227;42.654;23.360;2022-11-15T04:45:23;94916.41;;;5.94;87.05
6389;BME280;3227;42.654;23.360;2022-11-15T04:47:50;94918.94;;;5.92;88.49
6389;BME280;3227;42.654;23.360;2022-11-15T04:50:19;94915.44;;;5.89;89.43
6389;BME280;3227;42.654;23.360;2022-11-15T04:52:51;94912.03;;;5.88;90.26
6389;BME280;3227;42.654;23.360;2022-11-15T04:55:18;94916.31;;;5.89;89.70
6389;BME280;3227;42.654;23.360;2022-11-15T04:57:45;94921.34;;;5.88;90.22
6389;BME280;3227;42.654;23.360;2022-11-15T05:00:15;94878.41;;;5.65;90.18
6389;BME280;3227;42.654;23.360;2022-11-15T05:02:42;94883.63;;;5.71;90.27
6389;BME280;3227;42.654;23.360;2022-11-15T05:05:28;94917.25;;;5.93;90.66
6389;BME280;3227;42.654;23.360;2022-11-15T05:07:55;94922.34;;;5.94;90.55
6389;BME280;3227;42.654;23.360;2022-11-15T05:10:21;94906.84;;;5.85;91.11
6389;BME280;3227;42.654;23.360;2022-11-15T05:12:48;94919.78;;;5.94;91.16
6389;BME280;3227;42.654;23.360;2022-11-15T05:15:15;94920.69;;;5.96;91.08
6389;BME280;3227;42.654;23.360;2022-11-15T05:17:43;94919.09;;;6.00;91.73
6389;BME280;3227;42.654;23.360;2022-11-15T05:20:10;94904.50;;;5.91;91.33
6389;BME280;3227;42.654;23.360;2022-11-15T05:22:39;94913.16;;;5.99;91.57
6389;BME280;3227;42.654;23.360;2022-11-15T05:25:07;94900.06;;;5.86;91.78
6389;BME280;3227;42.654;23.360;2022-11-15T05:27:34;94898.38;;;5.86;91.95
6389;BME280;3227;42.654;23.360;2022-11-15T05:30:01;94923.28;;;5.98;91.75
6389;BME280;3227;42.654;23.360;2022-11-15T05:32:28;94921.66;;;6.00;91.68
6389;BME280;3227;42.654;23.360;2022-11-15T05:34:55;94918.38;;;6.05;92.41
6389;BME280;3227;42.654;23.360;2022-11-15T05:37:22;94915.78;;;6.04;91.93
6389;BME280;3227;42.654;23.360;2022-11-15T05:39:51;94915.09;;;6.11;91.93
6389;BME280;3227;42.654;23.360;2022-11-15T05:42:17;94918.53;;;6.13;91.76
6389;BME280;3227;42.654;23.360;2022-11-15T05:44:47;94916.91;;;6.15;91.97
6389;BME280;3227;42.654;23.360;2022-11-15T05:47:17;94919.53;;;6.20;92.43
6389;BME280;3227;42.654;23.360;2022-11-15T05:49:45;94921.34;;;6.24;92.34
6389;BME280;3227;42.654;23.360;2022-11-15T05:52:16;94922.25;;;6.27;92.00
6389;BME280;3227;42.654;23.360;2022-11-15T05:54:44;94907.72;;;6.22;92.49
6389;BME280;3227;42.654;23.360;2022-11-15T05:57:13;94923.06;;;6.25;92.48
6389;BME280;3227;42.654;23.360;2022-11-15T05:59:40;94915.34;;;6.22;92.48
6389;BME280;3227;42.654;23.360;2022-11-15T06:02:09;94863.88;;;5.96;92.44
6389;BME280;3227;42.654;23.360;2022-11-15T06:04:36;94918.72;;;6.21;92.92
6389;BME280;3227;42.654;23.360;2022-11-15T06:07:02;94923.06;;;6.26;92.01
6389;BME280;3227;42.654;23.360;2022-11-15T06:09:29;94917.06;;;6.23;92.11
6389;BME280;3227;42.654;23.360;2022-11-15T06:11:56;94922.50;;;6.38;91.94
6389;BME280;3227;42.654;23.360;2022-11-15T06:14:25;94924.34;;;6.45;92.21
6389;BME280;3227;42.654;23.360;2022-11-15T06:16:52;94881.63;;;6.30;91.84
6389;BME280;3227;42.654;23.360;2022-11-15T06:19:31;94928.00;;;6.56;91.31
6389;BME280;3227;42.654;23.360;2022-11-15T06:21:58;94891.09;;;6.37;90.87
6389;BME280;3227;42.654;23.360;2022-11-15T06:24:25;94934.22;;;6.70;90.64
6389;BME280;3227;42.654;23.360;2022-11-15T06:26:52;94933.47;;;6.74;89.89
6389;BME280;3227;42.654;23.360;2022-11-15T06:29:19;94921.66;;;6.78;90.21
6389;BME280;3227;42.654;23.360;2022-11-15T06:31:47;94921.09;;;6.93;90.07
6389;BME280;3227;42.654;23.360;2022-11-15T06:34:14;94918.53;;;6.91;89.37
6389;BME280;3227;42.654;23.360;2022-11-15T06:36:40;94901.25;;;6.76;89.81
6389;BME280;3227;42.654;23.360;2022-11-15T06:39:07;94919.53;;;6.99;90.03
6389;BME280;3227;42.654;23.360;2022-11-15T06:41:34;94917.88;;;7.00;89.48
6389;BME280;3227;42.654;23.360;2022-11-15T06:44:01;94918.56;;;6.94;89.10
6389;BME280;3227;42.654;23.360;2022-11-15T06:46:28;94912.59;;;6.92;89.68
6389;BME280;3227;42.654;23.360;2022-11-15T06:48:56;94910.97;;;6.96;90.09
6389;BME280;3227;42.654;23.360;2022-11-15T06:51:23;94862.06;;;6.70;89.69
6389;BME280;3227;42.654;23.360;2022-11-15T06:53:50;94917.22;;;7.11;88.92
6389;BME280;3227;42.654;23.360;2022-11-15T06:56:17;94913.09;;;7.16;88.55
6389;BME280;3227;42.654;23.360;2022-11-15T06:58:43;94913.91;;;7.15;88.00
6389;BME280;3227;42.654;23.360;2022-11-15T07:01:12;94914.88;;;7.22;88.12
6389;BME280;3227;42.654;23.360;2022-11-15T07:03:41;94906.44;;;7.24;88.01
6389;BME280;3227;42.654;23.360;2022-11-15T07:06:10;94922.72;;;7.34;87.01
6389;BME280;3227;42.654;23.360;2022-11-15T07:08:37;94918.53;;;7.36;86.62
6389;BME280;3227;42.654;23.360;2022-11-15T07:11:05;94906.50;;;7.29;86.13
6389;BME280;3227;42.654;23.360;2022-11-15T07:13:34;94914.94;;;7.26;86.65
6389;BME280;3227;42.654;23.360;2022-11-15T07:16:03;94910.75;;;7.29;87.32
6389;BME280;3227;42.654;23.360;2022-11-15T07:18:29;94906.38;;;7.21;87.02
6389;BME280;3227;42.654;23.360;2022-11-15T07:21:00;94900.19;;;7.09;88.19
6389;BME280;3227;42.654;23.360;2022-11-15T07:23:28;94902.03;;;7.17;88.19
6389;BME280;3227;42.654;23.360;2022-11-15T07:25:56;94899.63;;;7.25;88.33
6389;BME280;3227;42.654;23.360;2022-11-15T07:28:23;94899.69;;;7.28;88.13
6389;BME280;3227;42.654;23.360;2022-11-15T07:30:50;94909.19;;;7.37;87.85
6389;BME280;3227;42.654;23.360;2022-11-15T07:33:17;94912.69;;;7.42;87.28
6389;BME280;3227;42.654;23.360;2022-11-15T07:35:44;94903.41;;;7.45;87.25
6389;BME280;3227;42.654;23.360;2022-11-15T07:38:13;94903.47;;;7.48;87.75
6389;BME280;3227;42.654;23.360;2022-11-15T07:40:41;94901.84;;;7.53;88.08
6389;BME280;3227;42.654;23.360;2022-11-15T07:43:08;94914.72;;;7.61;87.94
6389;BME280;3227;42.654;23.360;2022-11-15T07:45:40;94914.03;;;7.70;87.92
6389;BME280;3227;42.654;23.360;2022-11-15T07:48:07;94908.22;;;7.78;86.99
6389;BME280;3227;42.654;23.360;2022-11-15T07:50:34;94906.59;;;7.83;86.65
6389;BME280;3227;42.654;23.360;2022-11-15T07:53:01;94908.31;;;7.84;86.09
6389;BME280;3227;42.654;23.360;2022-11-15T07:55:28;94904.97;;;7.87;86.46
6389;BME280;3227;42.654;23.360;2022-11-15T07:58:01;94858.75;;;7.69;86.65
6389;BME280;3227;42.654;23.360;2022-11-15T08:00:28;94902.66;;;8.02;86.37
6389;BME280;3227;42.654;23.360;2022-11-15T08:03:02;94906.16;;;8.10;86.15
6389;BME280;3227;42.654;23.360;2022-11-15T08:05:29;94907.72;;;8.00;85.49
6389;BME280;3227;42.654;23.360;2022-11-15T08:07:56;94904.31;;;8.00;85.96
6389;BME280;3227;42.654;23.360;2022-11-15T08:10:23;94903.31;;;7.92;85.61
6389;BME280;3227;42.654;23.360;2022-11-15T08:12:57;94903.28;;;7.87;85.81
6389;BME280;3227;42.654;23.360;2022-11-15T08:15:25;94848.41;;;7.61;85.69
6389;BME280;3227;42.654;23.360;2022-11-15T08:17:56;94899.03;;;7.88;85.88
6389;BME280;3227;42.654;23.360;2022-11-15T08:20:23;94902.31;;;7.81;86.31
6389;BME280;3227;42.654;23.360;2022-11-15T08:22:51;94900.66;;;7.84;86.80
6389;BME280;3227;42.654;23.360;2022-11-15T08:25:18;94899.81;;;7.85;86.64
6389;BME280;3227;42.654;23.360;2022-11-15T08:27:45;94895.56;;;7.84;86.83
6389;BME280;3227;42.654;23.360;2022-11-15T08:30:12;94842.47;;;7.60;86.72
6389;BME280;3227;42.654;23.360;2022-11-15T08:32:42;94849.53;;;7.77;86.82
6389;BME280;3227;42.654;23.360;2022-11-15T08:35:09;94899.22;;;8.01;85.86
6389;BME280;3227;42.654;23.360;2022-11-15T08:37:36;94899.19;;;7.97;86.41
6389;BME280;3227;42.654;23.360;2022-11-15T08:40:04;94893.59;;;7.68;87.37
6389;BME280;3227;42.654;23.360;2022-11-15T08:42:31;94884.28;;;7.70;88.39
6389;BME280;3227;42.654;23.360;2022-11-15T08:44:58;94879.25;;;7.76;88.66
6389;BME280;3227;42.654;23.360;2022-11-15T08:47:24;94888.81;;;7.88;88.39
6389;BME280;3227;42.654;23.360;2022-11-15T08:49:53;94884.59;;;7.91;87.63
6389;BME280;3227;42.654;23.360;2022-11-15T08:52:20;94874.41;;;7.90;87.43
6389;BME280;3227;42.654;23.360;2022-11-15T08:54:47;94879.38;;;7.84;88.01
6389;BME280;3227;42.654;23.360;2022-11-15T08:57:44;94876.97;;;7.90;88.44
6389;BME280;3227;42.654;23.360;2022-11-15T09:00:12;94869.28;;;7.88;87.99
6389;BME280;3227;42.654;23.360;2022-11-15T09:02:39;94857.41;;;7.90;88.16
6389;BME280;3227;42.654;23.360;2022-11-15T09:05:08;94817.31;;;7.83;88.07
6389;BME280;3227;42.654;23.360;2022-11-15T09:07:35;94857.78;;;8.18;87.67
6389;BME280;3227;42.654;23.360;2022-11-15T09:10:03;94857.09;;;8.28;86.99
6389;BME280;3227;42.654;23.360;2022-11-15T09:12:29;94849.59;;;8.40;86.70
6389;BME280;3227;42.654;23.360;2022-11-15T09:14:56;94845.53;;;8.53;85.76
6389;BME280;3227;42.654;23.360;2022-11-15T09:17:23;94819.81;;;8.37;84.58
6389;BME280;3227;42.654;23.360;2022-11-15T09:19:50;94805.31;;;8.36;85.15
6389;BME280;3227;42.654;23.360;2022-11-15T09:22:18;94844.88;;;8.69;85.10
6389;BME280;3227;42.654;23.360;2022-11-15T09:24:45;94837.19;;;8.64;84.35
6389;BME280;3227;42.654;23.360;2022-11-15T09:27:17;94823.50;;;8.61;85.23
6389;BME280;3227;42.654;23.360;2022-11-15T09:29:43;94835.66;;;8.80;85.03
6389;BME280;3227;42.654;23.360;2022-11-15T09:32:10;94830.56;;;8.83;83.35
6389;BME280;3227;42.654;23.360;2022-11-15T09:34:37;94827.16;;;8.84;83.27
6389;BME280;3227;42.654;23.360;2022-11-15T09:37:04;94822.88;;;8.80;83.59
6389;BME280;3227;42.654;23.360;2022-11-15T09:39:32;94823.75;;;8.81;83.77
6389;BME280;3227;42.654;23.360;2022-11-15T09:42:14;94818.66;;;8.85;83.46
6389;BME280;3227;42.654;23.360;2022-11-15T09:45:03;94817.09;;;8.99;83.19
6389;BME280;3227;42.654;23.360;2022-11-15T09:47:46;94807.81;;;9.07;82.44
6389;BME280;3227;42.654;23.360;2022-11-15T09:50:29;94810.44;;;9.13;82.07
6389;BME280;3227;42.654;23.360;2022-11-15T09:52:57;94750.50;;;8.83;82.39
6389;BME280;3227;42.654;23.360;2022-11-15T09:55:35;94765.97;;;8.95;82.34
6389;BME280;3227;42.654;23.360;2022-11-15T09:58:15;94759.47;;;9.33;89.27
6389;BME280;3227;42.654;23.360;2022-11-15T10:00:47;94794.09;;;10.01;88.08
6389;BME280;3227;42.654;23.360;2022-11-15T10:03:22;94780.53;;;10.17;82.82
6389;BME280;3227;42.654;23.360;2022-11-15T10:05:55;94763.50;;;10.22;80.63
6389;BME280;3227;42.654;23.360;2022-11-15T10:08:37;94784.06;;;10.34;79.17
6389;BME280;3227;42.654;23.360;2022-11-15T10:11:10;94782.38;;;10.38;78.39
6389;BME280;3227;42.654;23.360;2022-11-15T10:13:41;94752.34;;;10.17;77.99
6389;BME280;3227;42.654;23.360;2022-11-15T10:16:36;94735.19;;;9.95;78.86
6389;BME280;3227;42.654;23.360;2022-11-15T10:19:15;94749.72;;;10.06;78.83
6389;BME280;3227;42.654;23.360;2022-11-15T10:21:55;94758.41;;;10.26;79.51
6389;BME280;3227;42.654;23.360;2022-11-15T10:24:28;94766.97;;;10.27;77.88
6389;BME280;3227;42.654;23.360;2022-11-15T10:27:00;94730.94;;;10.00;79.10
6389;BME280;3227;42.654;23.360;2022-11-15T10:29:27;94756.72;;;10.30;78.09
6389;BME280;3227;42.654;23.360;2022-11-15T10:31:53;94752.53;;;10.46;77.58
6389;BME280;3227;42.654;23.360;2022-11-15T10:34:22;94738.00;;;10.49;77.13
6389;BME280;3227;42.654;23.360;2022-11-15T10:36:54;94739.78;;;10.65;77.95
6389;BME280;3227;42.654;23.360;2022-11-15T10:39:22;94734.66;;;10.72;76.65
6389;BME280;3227;42.654;23.360;2022-11-15T10:41:48;94732.97;;;10.83;76.09
6389;BME280;3227;42.654;23.360;2022-11-15T10:44:25;94710.75;;;10.82;76.25
6389;BME280;3227;42.654;23.360;2022-11-15T10:50:00;94713.34;;;10.94;74.90
6389;BME280;3227;42.654;23.360;2022-11-15T10:52:29;94667.91;;;10.23;75.27
6389;BME280;3227;42.654;23.360;2022-11-15T10:55:00;94718.88;;;9.82;78.83
6389;BME280;3227;42.654;23.360;2022-11-15T10:57:31;94719.44;;;9.35;82.31
6389;BME280;3227;42.654;23.360;2022-11-15T11:00:01;94663.56;;;8.76;83.97
6389;BME280;3227;42.654;23.360;2022-11-15T11:02:32;94682.41;;;8.86;85.27
6389;BME280;3227;42.654;23.360;2022-11-15T11:05:00;94692.66;;;8.91;86.39
6389;BME280;3227;42.654;23.360;2022-11-15T11:07:29;94630.19;;;8.57;86.20
6389;BME280;3227;42.654;23.360;2022-11-15T11:10:02;94682.66;;;9.16;84.96
6389;BME280;3227;42.654;23.360;2022-11-15T11:12:30;94679.97;;;9.01;85.94
6389;BME280;3227;42.654;23.360;2022-11-15T11:15:01;94673.91;;;8.89;86.77
6389;BME280;3227;42.654;23.360;2022-11-15T11:17:37;94675.75;;;9.05;86.50
6389;BME280;3227;42.654;23.360;2022-11-15T11:20:17;94682.75;;;9.30;85.34
6389;BME280;3227;42.654;23.360;2022-11-15T11:22:56;94669.13;;;9.30;84.22
6389;BME280;3227;42.654;23.360;2022-11-15T11:25:34;94674.09;;;9.14;85.33
6389;BME280;3227;42.654;23.360;2022-11-15T11:28:32;94662.31;;;9.30;84.90
6389;BME280;3227;42.654;23.360;2022-11-15T11:31:27;94579.19;;;8.67;85.31
6389;BME280;3227;42.654;23.360;2022-11-15T11:34:05;94646.94;;;9.29;84.96
6389;BME280;3227;42.654;23.360;2022-11-15T11:36:40;94646.13;;;9.34;84.35
6389;BME280;3227;42.654;23.360;2022-11-15T11:39:27;94602.56;;;9.18;84.38
6389;BME280;3227;42.654;23.360;2022-11-15T11:42:04;94632.28;;;9.06;85.68
6389;BME280;3227;42.654;23.360;2022-11-15T11:44:46;94546.69;;;8.47;86.57
6389;BME280;3227;42.654;23.360;2022-11-15T11:47:21;94620.38;;;9.04;86.49
6389;BME280;3227;42.654;23.360;2022-11-15T11:49:51;94614.53;;;9.25;85.51
6389;BME280;3227;42.654;23.360;2022-11-15T11:52:23;94613.75;;;9.35;84.84
6389;BME280;3227;42.654;23.360;2022-11-15T11:55:00;94618.03;;;9.37;84.85
6389;BME280;3227;42.654;23.360;2022-11-15T11:57:39;94581.34;;;9.35;84.12
6389;BME280;3227;42.654;23.360;2022-11-15T12:00:16;94609.59;;;9.58;83.65
6389;BME280;3227;42.654;23.360;2022-11-15T12:03:00;94601.03;;;9.50;83.44
6389;BME280;3227;42.654;23.360;2022-11-15T12:05:35;94579.50;;;9.14;84.95
6389;BME280;3227;42.654;23.360;2022-11-15T12:08:22;94595.81;;;9.29;84.90
6389;BME280;3227;42.654;23.360;2022-11-15T12:10:54;94574.50;;;9.31;84.52
6389;BME280;3227;42.654;23.360;2022-11-15T12:13:26;94577.09;;;9.40;84.76
6389;BME280;3227;42.654;23.360;2022-11-15T12:16:04;94573.75;;;9.49;84.55
6389;BME280;3227;42.654;23.360;2022-11-15T12:18:34;94573.78;;;9.57;84.26
6389;BME280;3227;42.654;23.360;2022-11-15T12:21:04;94566.06;;;9.49;84.33
6389;BME280;3227;42.654;23.360;2022-11-15T12:23:38;94568.63;;;9.49;84.32
6389;BME280;3227;42.654;23.360;2022-11-15T12:26:08;94572.91;;;9.50;84.57
6389;BME280;3227;42.654;23.360;2022-11-15T12:28:41;94567.00;;;9.63;83.78
6389;BME280;3227;42.654;23.360;2022-11-15T12:31:13;94556.75;;;9.65;83.44
6389;BME280;3227;42.654;23.360;2022-11-15T12:33:46;94543.06;;;9.50;83.39
6389;BME280;3227;42.654;23.360;2022-11-15T12:36:32;94511.47;;;9.36;83.81
6389;BME280;3227;42.654;23.360;2022-11-15T12:39:02;94509.72;;;9.32;84.43
6389;BME280;3227;42.654;23.360;2022-11-15T12:41:30;94550.78;;;9.61;84.31
6389;BME280;3227;42.654;23.360;2022-11-15T12:43:58;94547.31;;;9.50;84.17
6389;BME280;3227;42.654;23.360;2022-11-15T12:47:01;94540.50;;;9.50;84.65
6389;BME280;3227;42.654;23.360;2022-11-15T12:49:46;94541.34;;;9.51;84.89
6389;BME280;3227;42.654;23.360;2022-11-15T12:52:13;94531.16;;;9.60;84.28
6389;BME280;3227;42.654;23.360;2022-11-15T12:54:58;94527.78;;;9.70;83.74
6389;BME280;3227;42.654;23.360;2022-11-15T12:57:30;94531.22;;;9.78;83.48
6389;BME280;3227;42.654;23.360;2022-11-15T12:59:59;94526.16;;;9.93;82.76
6389;BME280;3227;42.654;23.360;2022-11-15T13:02:29;94532.13;;;9.88;83.17
6389;BME280;3227;42.654;23.360;2022-11-15T13:08:03;94520.94;;;9.62;84.31
6389;BME280;3227;42.654;23.360;2022-11-15T13:10:32;94526.06;;;9.60;84.71
6389;BME280;3227;42.654;23.360;2022-11-15T13:13:00;94521.81;;;9.68;84.55
6389;BME280;3227;42.654;23.360;2022-11-15T13:15:43;94520.09;;;9.73;84.60
6389;BME280;3227;42.654;23.360;2022-11-15T13:18:37;94488.53;;;9.65;83.94
6389;BME280;3227;42.654;23.360;2022-11-15T13:21:19;94510.81;;;10.03;83.04
6389;BME280;3227;42.654;23.360;2022-11-15T13:24:10;94503.13;;;9.95;83.48
6389;BME280;3227;42.654;23.360;2022-11-15T13:26:39;94508.22;;;9.98;83.29
6389;BME280;3227;42.654;23.360;2022-11-15T13:29:15;94504.81;;;9.99;83.29
6389;BME280;3227;42.654;23.360;2022-11-15T13:31:43;94499.66;;;9.88;83.67
6389;BME280;3227;42.654;23.360;2022-11-15T13:34:25;94491.97;;;9.81;83.80
6389;BME280;3227;42.654;23.360;2022-11-15T13:36:53;94477.44;;;9.60;84.66
6389;BME280;3227;42.654;23.360;2022-11-15T13:39:28;94451.00;;;9.52;84.21
6389;BME280;3227;42.654;23.360;2022-11-15T13:41:56;94493.69;;;9.89;83.96
6389;BME280;3227;42.654;23.360;2022-11-15T13:44:24;94492.88;;;9.92;83.96
6389;BME280;3227;42.654;23.360;2022-11-15T13:47:01;94500.56;;;10.00;83.49
6389;BME280;3227;42.654;23.360;2022-11-15T13:49:30;94476.66;;;9.91;83.80
6389;BME280;3227;42.654;23.360;2022-11-15T13:51:58;94491.16;;;10.00;83.68
6389;BME280;3227;42.654;23.360;2022-11-15T13:54:29;94492.88;;;10.00;83.74
6389;BME280;3227;42.654;23.360;2022-11-15T13:56:59;94492.03;;;10.01;83.41
6389;BME280;3227;42.654;23.360;2022-11-15T13:59:30;94486.91;;;10.07;83.49